Mancha Real, Spain
Current Conditions -  °F | °C
As of 11:00 PM on Saturday 27 Dec 2014 (Local Time) from LEGR Reporting Station
Few Clouds Few Clouds  
Wind Chill: 36°   Ceiling: Unl
Heat Index: 36°   Visibility: 6mi
Dew Point: 36°   Wind: 1mph
Humidity: 100%   Direction: NA
Pressure: 30.24"   Gusts: NA
Location:  37.79°N, 3.61°W
Report Text: LEGR 272200Z VRB01KT 9999 FEW060 02/02 Q1024
Loading
Personal Weather Stations






























Interactive Weather Map New forecast layout! Learn more

10-Day Weather Forecast

Advertisements
Track Severe Weather on mobile